Time;durP1;ratioP1;P1;durP2;ratioP2;P2;SDS_P1;SDS_P2;PMS_P1;PMS_P2;Temp;Humidity;BMP_temperature;BMP_pressure;BME280_temperature;BME280_humidity;BME280_pressure;Samples;Min_cycle;Max_cycle;Signal;HPM_P1;HPM_P2
2021/12/12 00:00:59;;;;;;;10.93;5.25;;;;;;;3.14;100.00;101866.84;2074549;28;20033;-65
2021/12/12 00:02:07;;;;;;;17.17;5.97;;;;;;;3.15;100.00;101863.44;2074540;28;20394;-63
2021/12/12 00:03:20;;;;;;;13.18;5.95;;;;;;;3.17;100.00;101861.72;2074523;28;20036;-65
2021/12/12 00:04:31;;;;;;;15.57;5.43;;;;;;;3.18;100.00;101858.31;2074476;28;20376;-65
2021/12/12 00:05:39;;;;;;;22.17;7.22;;;;;;;3.18;100.00;101856.56;2074473;28;20029;-65
2021/12/12 00:06:53;;;;;;;13.32;5.72;;;;;;;3.18;100.00;101853.13;2074321;28;20033;-66
2021/12/12 00:07:53;;;;;;;17.88;5.72;;;;;;;3.16;100.00;101853.13;2065661;28;20054;-66
2021/12/12 00:08:57;;;;;;;11.60;5.63;;;;;;;3.16;100.00;101865.16;2065729;28;20018;-66
2021/12/12 00:10:04;;;;;;;13.05;4.90;;;;;;;3.15;100.00;101861.69;2074414;28;20033;-64
2021/12/12 00:11:08;;;;;;;15.93;7.28;;;;;;;3.18;100.00;101863.47;2074354;28;20028;-64
2021/12/12 00:12:22;;;;;;;16.20;5.85;;;;;;;3.17;100.00;101857.44;2074333;28;20034;-66
2021/12/12 00:13:29;;;;;;;11.75;4.82;;;;;;;3.20;100.00;101866.91;2074332;28;20053;-65
2021/12/12 00:14:32;;;;;;;14.18;6.40;;;;;;;3.21;100.00;101858.28;2065649;28;20038;-66
2021/12/12 00:15:33;;;;;;;11.05;5.88;;;;;;;3.20;100.00;101852.28;2065934;28;20038;-66
2021/12/12 00:16:33;;;;;;;13.27;4.77;;;;;;;3.22;100.00;101854.88;2074353;28;20071;-66
2021/12/12 00:17:33;;;;;;;9.90;5.03;;;;;;;3.23;100.00;101848.84;2074379;28;20052;-66
2021/12/12 00:18:36;;;;;;;11.25;5.55;;;;;;;3.22;100.00;101840.25;2074330;28;20105;-66
2021/12/12 00:19:38;;;;;;;17.52;5.38;;;;;;;3.24;100.00;101852.31;2074287;28;20041;-67
2021/12/12 00:20:38;;;;;;;14.68;5.95;;;;;;;3.25;100.00;101849.72;2074347;28;20025;-66
2021/12/12 00:21:42;;;;;;;16.05;5.20;;;;;;;3.27;100.00;101848.00;2065533;28;20536;-66
2021/12/12 00:22:44;;;;;;;16.23;6.03;;;;;;;3.29;100.00;101848.88;2065517;28;20018;-65
2021/12/12 00:23:45;;;;;;;12.80;5.97;;;;;;;3.31;100.00;101846.28;2065668;28;20117;-65
2021/12/12 00:24:45;;;;;;;11.18;5.45;;;;;;;3.32;100.00;101848.88;2074317;28;20041;-65
2021/12/12 00:25:52;;;;;;;18.55;5.38;;;;;;;3.34;100.00;101854.94;2074410;28;20045;-65
2021/12/12 00:26:55;;;;;;;10.85;4.78;;;;;;;3.33;100.00;101854.91;2065558;28;20049;-66
2021/12/12 00:27:55;;;;;;;11.88;5.45;;;;;;;3.35;100.00;101846.31;2065877;28;20019;-65
2021/12/12 00:28:56;;;;;;;9.13;3.97;;;;;;;3.35;100.00;101843.75;2074353;28;20115;-65
2021/12/12 00:30:02;;;;;;;15.03;4.73;;;;;;;3.37;100.00;101848.03;2074367;28;20017;-64
2021/12/12 00:31:09;;;;;;;13.10;5.97;;;;;;;3.39;100.00;101841.19;2074165;28;20805;-65
2021/12/12 00:32:14;;;;;;;15.93;5.20;;;;;;;3.40;100.00;101837.72;2074414;28;20475;-65
2021/12/12 00:33:14;;;;;;;11.80;4.88;;;;;;;3.41;100.00;101839.44;2074316;28;20383;-65
2021/12/12 00:34:16;;;;;;;13.57;5.43;;;;;;;3.40;100.00;101842.91;2074363;28;20034;-65
2021/12/12 00:35:17;;;;;;;12.43;4.65;;;;;;;3.40;100.00;101842.91;2065544;28;20273;-66
2021/12/12 00:36:18;;;;;;;10.30;4.80;;;;;;;3.41;100.00;101840.31;2057546;28;20074;-64
2021/12/12 00:37:19;;;;;;;14.95;5.30;;;;;;;3.43;100.00;101832.59;2065643;28;20026;-65
2021/12/12 00:38:26;;;;;;;12.73;5.05;;;;;;;3.44;100.00;101824.84;2065483;28;20511;-66
2021/12/12 00:39:31;;;;;;;19.83;5.88;;;;;;;3.44;100.00;101831.72;2066451;28;20141;-66
2021/12/12 00:40:34;;;;;;;11.73;5.03;;;;;;;3.45;100.00;101833.44;2074303;28;20058;-66
2021/12/12 00:41:53;;;;;;;17.27;5.85;;;;;;;3.44;100.00;101834.31;2074158;28;20018;-66
2021/12/12 00:42:57;;;;;;;7.95;4.63;;;;;;;3.44;100.00;101831.72;2074238;28;20025;-66
2021/12/12 00:44:01;;;;;;;17.38;6.03;;;;;;;3.43;100.00;101827.44;2073808;28;20457;-66
2021/12/12 00:45:09;;;;;;;10.30;4.78;;;;;;;3.44;100.00;101834.31;2073157;28;20018;-66
2021/12/12 00:46:10;;;;;;;15.23;5.03;;;;;;;3.45;100.00;101828.28;2074130;28;20029;-64
2021/12/12 00:47:11;;;;;;;13.18;5.72;;;;;;;3.44;100.00;101832.59;2065451;28;20089;-66
2021/12/12 00:48:11;;;;;;;11.40;5.20;;;;;;;3.45;100.00;101825.69;2065569;28;20046;-65
2021/12/12 00:49:13;;;;;;;11.53;5.17;;;;;;;3.45;100.00;101820.53;2074180;28;20374;-66
2021/12/12 00:50:26;;;;;;;9.43;4.95;;;;;;;3.44;100.00;101818.81;2065361;28;20076;-64
2021/12/12 00:51:31;;;;;;;14.05;4.72;;;;;;;3.46;100.00;101822.28;2058947;28;20038;-66
2021/12/12 00:52:31;;;;;;;12.02;5.45;;;;;;;3.47;100.00;101824.00;2065956;28;20018;-65
2021/12/12 00:53:32;;;;;;;10.23;5.07;;;;;;;3.47;100.00;101826.59;2074103;28;20060;-65
2021/12/12 00:54:37;;;;;;;12.77;5.25;;;;;;;3.46;100.00;101822.28;2074085;28;20057;-66
2021/12/12 00:55:40;;;;;;;14.10;5.00;;;;;;;3.47;100.00;101824.00;2065214;28;20073;-66
2021/12/12 00:56:42;;;;;;;13.10;5.13;;;;;;;3.48;100.00;101820.56;2065659;28;20045;-63
2021/12/12 00:57:49;;;;;;;12.10;5.22;;;;;;;3.47;100.00;101821.41;2074118;28;20072;-64
2021/12/12 00:58:50;;;;;;;14.32;5.18;;;;;;;3.47;100.00;101818.84;2074158;28;20033;-65
2021/12/12 00:59:50;;;;;;;15.68;5.43;;;;;;;3.47;100.00;101816.25;2074131;28;20022;-65
2021/12/12 01:00:55;;;;;;;9.80;4.70;;;;;;;3.47;100.00;101813.69;2074077;28;20025;-63
2021/12/12 01:01:58;;;;;;;19.30;4.93;;;;;;;3.48;100.00;101812.81;2065266;28;20116;-65
2021/12/12 01:02:58;;;;;;;17.02;5.50;;;;;;;3.50;100.00;101807.66;2065635;28;20049;-64
2021/12/12 01:04:08;;;;;;;10.40;5.20;;;;;;;3.48;100.00;101812.81;2074125;28;20379;-64
2021/12/12 01:05:11;;;;;;;12.80;4.70;;;;;;;3.45;100.00;101807.63;2074036;28;20372;-64
2021/12/12 01:06:12;;;;;;;16.25;6.00;;;;;;;3.45;100.00;101810.22;2074000;28;20121;-65
2021/12/12 01:07:20;;;;;;;16.73;6.35;;;;;;;3.44;100.00;101805.91;2065196;28;20033;-63
2021/12/12 01:08:20;;;;;;;15.55;5.95;;;;;;;3.43;100.00;101796.47;2066121;28;20061;-65
2021/12/12 01:09:25;;;;;;;10.90;5.73;;;;;;;3.44;100.00;101803.34;2065273;28;20026;-65
2021/12/12 01:10:32;;;;;;;14.40;5.55;;;;;;;3.43;100.00;101806.78;2057802;28;20069;-64
2021/12/12 01:11:37;;;;;;;11.13;5.10;;;;;;;3.43;100.00;101801.63;2066055;28;20038;-63
2021/12/12 01:12:38;;;;;;;11.82;5.40;;;;;;;3.42;100.00;101805.91;2073967;28;20038;-63
2021/12/12 01:13:39;;;;;;;10.63;5.05;;;;;;;3.42;100.00;101802.50;2073956;28;20084;-63
2021/12/12 01:14:43;;;;;;;14.18;6.35;;;;;;;3.42;100.00;101800.75;2073968;28;20080;-63
2021/12/12 01:16:04;;;;;;;16.50;5.93;;;;;;;3.42;100.00;101805.06;2074015;28;20018;-64
2021/12/12 01:17:37;;;;;;;14.07;5.38;;;;;;;3.43;100.00;101804.19;2065165;28;20026;-63
2021/12/12 01:18:40;;;;;;;;;;;;;;;3.41;100.00;101811.94;2065942;28;20414;-63
2021/12/12 01:19:50;;;;;;;9.38;4.05;;;;;;;3.41;100.00;101808.47;2073784;28;19910;-63
2021/12/12 01:20:55;;;;;;;13.23;4.85;;;;;;;3.42;100.00;101800.75;2065136;28;20025;-64
2021/12/12 01:22:01;;;;;;;9.48;4.55;;;;;;;3.45;100.00;101810.22;2065812;28;20036;-63
2021/12/12 01:23:09;;;;;;;12.60;5.18;;;;;;;3.45;100.00;101802.47;2073867;28;20025;-64
2021/12/12 01:24:15;;;;;;;11.23;4.85;;;;;;;3.45;100.00;101805.94;2065026;28;20060;-63
2021/12/12 01:25:27;;;;;;;9.75;4.88;;;;;;;3.45;100.00;101805.06;2065874;28;20295;-63
2021/12/12 01:26:29;;;;;;;9.90;4.90;;;;;;;3.46;100.00;101807.63;2065071;28;20037;-63
2021/12/12 01:27:29;;;;;;;15.65;5.38;;;;;;;3.47;100.00;101800.78;2065472;28;20055;-63
2021/12/12 01:28:32;;;;;;;13.27;4.83;;;;;;;3.46;100.00;101802.47;2073892;28;20527;-64
2021/12/12 01:29:33;;;;;;;16.38;6.55;;;;;;;3.45;100.00;101805.94;2073904;28;20490;-63
2021/12/12 01:30:33;;;;;;;10.77;4.82;;;;;;;3.47;100.00;101806.81;2073812;28;20044;-64
2021/12/12 01:31:45;;;;;;;12.93;5.50;;;;;;;3.48;100.00;101805.06;2073772;28;20029;-64
2021/12/12 01:32:50;;;;;;;15.23;5.78;;;;;;;3.50;100.00;101816.28;2073719;28;20407;-63
2021/12/12 01:33:58;;;;;;;20.63;6.00;;;;;;;3.50;100.00;101813.69;2073805;28;20041;-64
2021/12/12 01:34:59;;;;;;;17.38;5.53;;;;;;;3.50;100.00;101800.78;2073802;28;20076;-64
2021/12/12 01:36:07;;;;;;;12.27;4.65;;;;;;;3.49;100.00;101809.38;2065062;28;20029;-64
2021/12/12 01:39:44;;;;;;;15.13;4.80;;;;;;;3.53;100.00;101812.84;2073836;28;20113;-63
2021/12/12 01:40:49;;;;;;;11.05;5.40;;;;;;;3.55;100.00;101814.56;2073757;28;20391;-63
2021/12/12 01:42:02;;;;;;;12.65;4.53;;;;;;;3.54;100.00;101810.25;2073723;28;20420;-63
2021/12/12 01:43:16;;;;;;;15.05;5.30;;;;;;;3.55;100.00;101804.22;2073738;28;20021;-63
2021/12/12 01:44:25;;;;;;;11.30;5.15;;;;;;;3.56;100.00;101797.38;2073619;28;20029;-63
2021/12/12 01:45:31;;;;;;;12.48;5.00;;;;;;;3.56;100.00;101807.69;2064825;28;20050;-63
2021/12/12 01:46:37;;;;;;;15.05;5.55;;;;;;;3.55;100.00;101809.41;2065680;28;20078;-63
2021/12/12 01:47:50;;;;;;;14.52;5.18;;;;;;;3.57;100.00;101804.25;2073707;28;20113;-64
2021/12/12 01:48:53;;;;;;;16.30;5.72;;;;;;;3.57;100.00;101799.94;2073738;28;20067;-63
2021/12/12 01:49:57;;;;;;;16.98;6.40;;;;;;;3.59;100.00;101792.19;2073708;28;20022;-64
2021/12/12 01:51:07;;;;;;;13.38;5.75;;;;;;;3.60;100.00;101802.50;2073569;28;20021;-64
2021/12/12 01:52:10;;;;;;;13.85;4.93;;;;;;;3.59;100.00;101802.50;2073667;28;20471;-64
2021/12/12 01:53:14;;;;;;;13.32;4.65;;;;;;;3.58;100.00;101809.41;2064879;28;20062;-64
2021/12/12 01:54:21;;;;;;;12.32;5.05;;;;;;;3.58;100.00;101812.00;2064904;28;20476;-64
2021/12/12 01:55:27;;;;;;;15.48;5.68;;;;;;;3.59;100.00;101807.66;2065868;28;20026;-64
2021/12/12 01:56:42;;;;;;;13.13;5.28;;;;;;;3.58;100.00;101800.78;2073342;28;20132;-64
2021/12/12 01:57:43;;;;;;;12.52;5.15;;;;;;;3.58;100.00;101796.50;2073636;28;20025;-64
2021/12/12 01:58:46;;;;;;;10.70;5.50;;;;;;;3.60;100.00;101799.09;2073687;28;20040;-62
2021/12/12 01:59:48;;;;;;;14.95;5.82;;;;;;;3.62;100.00;101796.50;2073680;28;20288;-63
2021/12/12 02:00:55;;;;;;;12.82;5.20;;;;;;;3.64;100.00;101799.94;2073693;28;20030;-63
2021/12/12 02:02:18;;;;;;;15.30;5.38;;;;;;;3.67;100.00;101799.97;2073617;28;20026;-63
2021/12/12 02:03:23;;;;;;;10.80;5.07;;;;;;;3.67;100.00;101799.97;2073616;28;20026;-64
2021/12/12 02:04:28;;;;;;;14.88;4.78;;;;;;;3.65;100.00;101796.50;2064816;28;20026;-63
2021/12/12 02:05:29;;;;;;;15.82;5.30;;;;;;;3.65;100.00;101796.50;2065487;28;20035;-63
2021/12/12 02:06:30;;;;;;;15.20;5.93;;;;;;;3.64;100.00;101800.81;2073681;28;20160;-63
2021/12/12 02:07:35;;;;;;;15.43;4.95;;;;;;;3.65;100.00;101792.22;2073624;28;20026;-63
2021/12/12 02:08:38;;;;;;;12.65;5.25;;;;;;;3.66;100.00;101793.09;2073536;28;20022;-62
2021/12/12 02:09:40;;;;;;;15.57;4.88;;;;;;;3.68;100.00;101796.50;2073567;28;20034;-64
2021/12/12 02:10:48;;;;;;;11.82;4.53;;;;;;;3.67;100.00;101794.78;2073570;28;20026;-62
2021/12/12 02:11:52;;;;;;;14.27;5.30;;;;;;;3.68;100.00;101796.50;2073575;28;20022;-63
2021/12/12 02:12:53;;;;;;;8.70;4.47;;;;;;;3.68;100.00;101799.97;2073546;28;20082;-63
2021/12/12 02:13:56;;;;;;;13.80;4.93;;;;;;;3.68;100.00;101793.94;2073583;28;20104;-63
2021/12/12 02:14:58;;;;;;;11.05;4.65;;;;;;;3.68;100.00;101791.34;2064759;28;20022;-63
2021/12/12 02:16:00;;;;;;;15.40;5.32;;;;;;;3.69;100.00;101793.06;2065036;28;20023;-62
2021/12/12 02:17:15;;;;;;;14.20;5.82;;;;;;;3.68;100.00;101786.19;2073572;28;20029;-64
2021/12/12 02:18:19;;;;;;;15.30;5.25;;;;;;;3.73;100.00;101784.50;2073575;28;20109;-62
2021/12/12 02:19:49;;;;;;;11.85;5.07;;;;;;;3.75;100.00;101782.75;2073529;28;20025;-63
2021/12/12 02:21:14;;;;;;;10.80;4.72;;;;;;;3.76;100.00;101781.88;2064657;28;20019;-63
2021/12/12 02:35:36;;;;;;;11.38;4.28;;;;;;;3.90;100.00;101778.47;2073625;28;20399;-63
2021/12/12 02:36:36;;;;;;;10.70;5.03;;;;;;;3.93;100.00;101781.06;2073486;28;20049;-63
2021/12/12 02:37:37;;;;;;;11.20;4.72;;;;;;;3.93;100.00;101781.06;2073478;28;20100;-63
2021/12/12 02:38:38;;;;;;;16.85;5.10;;;;;;;3.94;100.00;101787.94;2073460;28;20040;-63
2021/12/12 02:39:40;;;;;;;13.48;4.00;;;;;;;3.94;100.00;101782.78;2073307;28;20034;-63
2021/12/12 02:40:47;;;;;;;;;;;;;;;3.96;100.00;101791.38;2073921;28;20483;-63
2021/12/12 02:41:52;;;;;;;16.17;4.57;;;;;;;3.95;100.00;101779.31;2075893;28;19944;-63
2021/12/12 02:42:55;;;;;;;12.25;5.20;;;;;;;3.94;100.00;101782.78;2064700;28;20057;-63
2021/12/12 02:44:00;;;;;;;11.98;5.22;;;;;;;3.95;100.00;101781.91;2065030;28;20038;-63
2021/12/12 02:45:03;;;;;;;12.25;5.25;;;;;;;3.95;100.00;101779.31;2073213;28;20062;-64
2021/12/12 02:46:04;;;;;;;11.68;4.50;;;;;;;3.97;100.00;101783.63;2073440;28;20025;-63
2021/12/12 02:47:11;;;;;;;;;;;;;;;4.00;100.00;101777.59;2073897;28;20025;-63
2021/12/12 02:48:18;;;;;;;15.80;5.38;;;;;;;4.00;100.00;101777.59;2064703;28;19910;-63
2021/12/12 02:49:40;;;;;;;13.98;5.97;;;;;;;4.01;100.00;101771.59;2057484;28;20054;-62
2021/12/12 02:50:42;;;;;;;;;;;;;;;4.03;100.00;101769.84;2068099;28;20420;-63
2021/12/12 02:51:43;;;;;;;12.88;4.72;;;;;;;4.02;100.00;101759.53;2064614;28;19925;-62
2021/12/12 02:52:51;;;;;;;12.13;4.57;;;;;;;4.02;100.00;101765.56;2064723;28;20456;-63
2021/12/12 02:53:55;;;;;;;16.00;4.35;;;;;;;4.02;100.00;101760.38;2073443;28;20075;-62
2021/12/12 02:55:00;;;;;;;14.23;5.63;;;;;;;4.01;100.00;101758.69;2073401;28;20021;-63
2021/12/12 02:56:10;;;;;;;11.43;4.78;;;;;;;3.99;100.00;101758.66;2073452;28;20018;-63
2021/12/12 02:57:14;;;;;;;11.13;4.72;;;;;;;3.97;100.00;101754.38;2073369;28;20080;-62
2021/12/12 02:58:16;;;;;;;8.93;4.57;;;;;;;3.96;100.00;101757.78;2073389;28;20348;-63
2021/12/12 02:59:22;;;;;;;12.25;5.22;;;;;;;3.95;100.00;101756.94;2073383;28;20022;-63
2021/12/12 03:00:27;;;;;;;13.20;4.82;;;;;;;3.95;100.00;101761.25;2073207;28;20042;-62
2021/12/12 03:01:39;;;;;;;14.55;4.97;;;;;;;3.95;100.00;101750.91;2064606;28;20026;-65
2021/12/12 03:02:46;;;;;;;14.80;4.93;;;;;;;3.95;100.00;101758.66;2066284;28;20030;-62
2021/12/12 03:03:48;;;;;;;15.63;5.18;;;;;;;3.95;100.00;101756.06;2073353;28;20586;-62
2021/12/12 03:04:49;;;;;;;12.27;5.05;;;;;;;3.95;100.00;101754.38;2073406;28;20410;-61
2021/12/12 03:05:50;;;;;;;13.38;6.50;;;;;;;3.95;100.00;101748.34;2073397;28;20029;-61
2021/12/12 03:06:51;;;;;;;20.40;4.73;;;;;;;3.94;100.00;101757.78;2073452;28;20383;-64
2021/12/12 03:07:51;;;;;;;12.32;5.95;;;;;;;3.94;100.00;101756.94;2073641;28;20058;-63
2021/12/12 03:08:58;;;;;;;14.90;4.65;;;;;;;3.93;100.00;101748.31;2074868;28;20443;-63
2021/12/12 03:10:00;;;;;;;12.20;4.55;;;;;;;3.93;100.00;101750.06;2074792;28;20022;-63
2021/12/12 03:11:01;;;;;;;18.50;4.70;;;;;;;3.92;100.00;101749.19;2074794;28;20025;-63
2021/12/12 03:12:06;;;;;;;15.57;4.72;;;;;;;3.94;100.00;101751.78;2074826;28;20038;-62
2021/12/12 03:13:07;;;;;;;10.20;4.45;;;;;;;3.93;100.00;101750.06;2066074;28;20061;-62
2021/12/12 03:14:07;;;;;;;18.88;5.82;;;;;;;3.94;100.00;101751.78;2066252;28;20288;-63
2021/12/12 03:15:16;;;;;;;12.32;4.95;;;;;;;3.96;100.00;101750.03;2074914;28;20121;-63
2021/12/12 03:16:17;;;;;;;9.32;4.40;;;;;;;3.95;100.00;101758.66;2074823;28;20041;-63
2021/12/12 03:17:21;;;;;;;12.13;4.40;;;;;;;3.94;100.00;101751.78;2074910;28;20467;-63
2021/12/12 03:18:39;;;;;;;14.25;5.72;;;;;;;3.95;100.00;101744.03;2074899;28;20083;-63
2021/12/12 03:19:39;;;;;;;9.25;4.47;;;;;;;3.97;100.00;101762.13;2074824;28;20076;-63
2021/12/12 03:20:45;;;;;;;14.87;5.43;;;;;;;3.98;100.00;101753.50;2074863;28;20391;-62
2021/12/12 03:21:45;;;;;;;15.23;4.88;;;;;;;3.99;100.00;101755.22;2074848;28;20028;-64
2021/12/12 03:22:47;;;;;;;12.05;5.80;;;;;;;4.01;100.00;101757.81;2074816;28;20517;-62
2021/12/12 03:23:52;;;;;;;13.43;4.78;;;;;;;4.03;100.00;101751.78;2074799;28;20021;-63
2021/12/12 03:24:53;;;;;;;13.07;4.68;;;;;;;4.04;100.00;101756.06;2074783;28;20544;-62
2021/12/12 03:26:00;;;;;;;13.00;3.83;;;;;;;4.06;100.00;101751.78;2066028;28;20022;-62
2021/12/12 03:27:06;;;;;;;10.98;4.32;;;;;;;4.06;100.00;101746.59;2066801;28;20108;-62
2021/12/12 03:28:09;;;;;;;12.57;5.18;;;;;;;4.07;100.00;101750.91;2074829;28;20446;-62
2021/12/12 03:29:11;;;;;;;14.38;5.00;;;;;;;4.08;100.00;101744.88;2074771;28;20092;-63
2021/12/12 03:30:11;;;;;;;;;;;;;;;4.07;100.00;101748.31;2075125;28;20407;-62
2021/12/12 03:31:19;;;;;;;12.88;5.05;;;;;;;4.08;100.00;101739.69;2074621;28;19971;-62
2021/12/12 03:32:22;;;;;;;12.77;4.47;;;;;;;4.10;100.00;101743.16;2074715;28;20153;-63
2021/12/12 03:33:26;;;;;;;11.95;4.25;;;;;;;4.10;100.00;101731.94;2074711;28;20459;-63
2021/12/12 03:34:32;;;;;;;12.40;5.28;;;;;;;4.10;100.00;101732.81;2065851;28;20030;-62
2021/12/12 03:35:33;;;;;;;18.25;5.65;;;;;;;4.10;100.00;101732.81;2065883;28;20120;-62
2021/12/12 03:36:34;;;;;;;11.60;5.20;;;;;;;4.12;100.00;101735.41;2066007;28;20392;-62
2021/12/12 03:37:35;;;;;;;11.55;5.10;;;;;;;4.12;100.00;101736.28;2074748;28;20088;-62
2021/12/12 03:38:40;;;;;;;13.68;5.00;;;;;;;4.10;100.00;101726.78;2065965;28;20522;-63
2021/12/12 03:39:44;;;;;;;7.18;4.10;;;;;;;4.11;100.00;101728.53;2066585;28;20053;-63
2021/12/12 03:40:45;;;;;;;12.07;5.05;;;;;;;4.11;100.00;101729.38;2074684;28;20521;-63
2021/12/12 03:41:47;;;;;;;11.23;4.90;;;;;;;4.11;100.00;101724.22;2065874;28;20034;-63
2021/12/12 03:42:51;;;;;;;14.18;4.85;;;;;;;4.10;100.00;101722.50;2066028;28;20098;-62
2021/12/12 03:43:54;;;;;;;15.02;5.97;;;;;;;4.10;100.00;101722.50;2074491;28;20100;-63
2021/12/12 03:44:56;;;;;;;11.43;4.82;;;;;;;4.12;100.00;101731.13;2074695;28;20040;-63
2021/12/12 03:45:56;;;;;;;11.52;4.30;;;;;;;4.14;100.00;101722.50;2074384;28;20057;-63
2021/12/12 03:47:12;;;;;;;13.18;5.05;;;;;;;4.15;100.00;101719.03;2074656;28;20136;-63
2021/12/12 03:48:23;;;;;;;12.50;4.80;;;;;;;4.14;100.00;101728.50;2074856;28;20104;-63
2021/12/12 03:49:24;;;;;;;16.77;5.55;;;;;;;4.14;100.00;101727.66;2074633;28;20111;-63
2021/12/12 03:50:30;;;;;;;12.32;4.78;;;;;;;4.12;100.00;101725.94;2074617;28;20530;-60
2021/12/12 03:51:32;;;;;;;8.88;4.13;;;;;;;4.13;100.00;101726.78;2074476;28;20081;-62
2021/12/12 03:52:33;;;;;;;19.52;5.38;;;;;;;4.15;100.00;101726.78;2065836;28;20050;-63
2021/12/12 03:53:35;;;;;;;14.93;5.15;;;;;;;4.14;100.00;101728.50;2065866;28;20031;-63
2021/12/12 03:54:37;;;;;;;9.35;4.65;;;;;;;4.15;100.00;101724.22;2066124;28;20109;-61
2021/12/12 03:55:38;;;;;;;13.57;4.63;;;;;;;4.16;100.00;101718.16;2074518;28;20018;-61
2021/12/12 03:56:41;;;;;;;13.27;5.90;;;;;;;4.15;100.00;101719.03;2074608;28;20448;-62
2021/12/12 03:57:41;;;;;;;9.48;5.25;;;;;;;4.15;100.00;101724.22;2074453;28;20026;-63
2021/12/12 03:58:43;;;;;;;15.57;5.50;;;;;;;4.16;100.00;101721.63;2074561;28;20464;-62
2021/12/12 03:59:45;;;;;;;12.48;5.30;;;;;;;4.15;100.00;101719.91;2065768;28;20014;-63
2021/12/12 04:00:51;;;;;;;10.32;5.18;;;;;;;4.16;100.00;101721.63;2065929;28;20026;-62
2021/12/12 04:01:53;;;;;;;14.35;6.30;;;;;;;4.17;100.00;101723.34;2074522;28;20053;-62
2021/12/12 04:02:54;;;;;;;15.05;5.07;;;;;;;4.18;100.00;101724.22;2065712;28;20026;-61
2021/12/12 04:03:57;;;;;;;12.05;5.10;;;;;;;4.18;100.00;101719.03;2065970;28;20014;-63
2021/12/12 04:04:58;;;;;;;13.45;5.60;;;;;;;4.18;100.00;101727.63;2074562;28;20101;-63
2021/12/12 04:06:02;;;;;;;12.97;6.27;;;;;;;4.18;100.00;101726.78;2074503;28;20022;-62
2021/12/12 04:07:09;;;;;;;12.18;5.38;;;;;;;4.19;100.00;101720.75;2074475;28;20026;-62
2021/12/12 04:08:09;;;;;;;11.55;4.80;;;;;;;4.21;100.00;101725.06;2065675;28;20023;-62
2021/12/12 04:09:12;;;;;;;16.30;6.97;;;;;;;4.22;100.00;101733.69;2065842;28;20023;-64
2021/12/12 04:10:16;;;;;;;12.32;4.80;;;;;;;4.22;100.00;101725.91;2074202;28;20056;-64
2021/12/12 04:11:23;;;;;;;11.82;5.10;;;;;;;4.22;100.00;101726.78;2065608;28;20372;-63
2021/12/12 04:12:24;;;;;;;17.33;5.93;;;;;;;4.24;100.00;101724.19;2066602;28;20034;-64
2021/12/12 04:13:24;;;;;;;10.15;5.18;;;;;;;4.23;100.00;101727.63;2074422;28;20018;-64
2021/12/12 04:14:26;;;;;;;13.37;5.77;;;;;;;4.24;100.00;101724.19;2074462;28;20152;-63
2021/12/12 04:15:26;;;;;;;;;;;;;;;4.24;100.00;101727.63;2074840;28;20276;-63
2021/12/12 04:16:28;;;;;;;8.90;4.30;;;;;;;4.24;100.00;101729.34;2074449;28;19913;-64
2021/12/12 04:17:30;;;;;;;15.48;5.38;;;;;;;4.24;100.00;101726.75;2065616;28;20042;-64
2021/12/12 04:18:30;;;;;;;9.73;5.40;;;;;;;4.24;100.00;101724.19;2065826;28;20026;-63
2021/12/12 04:19:31;;;;;;;12.53;5.47;;;;;;;4.24;100.00;101735.38;2074171;28;20033;-64
2021/12/12 04:20:35;;;;;;;18.67;5.63;;;;;;;4.25;100.00;101736.25;2074400;28;20030;-64
2021/12/12 04:21:37;;;;;;;14.75;5.85;;;;;;;4.25;100.00;101731.09;2074274;28;20283;-63
2021/12/12 04:22:37;;;;;;;;;;;;;;;4.26;100.00;101725.06;2065981;28;20026;-64
2021/12/12 04:23:38;;;;;;;10.25;5.50;;;;;;;4.28;100.00;101736.25;2065663;28;19913;-64
2021/12/12 04:24:44;;;;;;;8.27;4.72;;;;;;;4.28;100.00;101741.44;2074534;28;20032;-63
2021/12/12 04:25:44;;;;;;;11.00;5.60;;;;;;;4.30;100.00;101733.66;2074339;28;20030;-64
2021/12/12 04:26:45;;;;;;;9.88;5.28;;;;;;;4.30;100.00;101729.34;2074312;28;20021;-63
2021/12/12 04:27:45;;;;;;;12.43;5.07;;;;;;;4.31;100.00;101731.06;2074381;28;20068;-62
2021/12/12 04:29:08;;;;;;;10.43;5.10;;;;;;;4.31;100.00;101736.22;2074314;28;20022;-63
2021/12/12 04:30:12;;;;;;;9.43;5.07;;;;;;;4.31;100.00;101741.41;2074251;28;20061;-64
2021/12/12 04:31:12;;;;;;;13.43;6.07;;;;;;;4.32;100.00;101737.09;2074267;28;20030;-64
2021/12/12 04:32:19;;;;;;;10.80;5.07;;;;;;;4.31;100.00;101731.06;2074330;28;20047;-64
2021/12/12 04:33:19;;;;;;;9.25;4.95;;;;;;;4.32;100.00;101726.78;2074267;28;20387;-63
2021/12/12 04:34:22;;;;;;;10.60;5.53;;;;;;;4.33;100.00;101736.22;2074224;28;20044;-64
2021/12/12 04:35:25;;;;;;;9.75;5.32;;;;;;;4.33;100.00;101729.34;2065466;28;20121;-62
2021/12/12 04:36:38;;;;;;;10.65;6.20;;;;;;;4.33;100.00;101731.94;2065967;28;20023;-63
2021/12/12 04:37:39;;;;;;;10.93;5.57;;;;;;;4.34;100.00;101735.38;2074195;28;20058;-63
2021/12/12 04:38:40;;;;;;;7.25;4.65;;;;;;;4.33;100.00;101729.34;2065474;28;20034;-64
2021/12/12 04:39:43;;;;;;;12.60;6.07;;;;;;;4.34;100.00;101731.06;2065530;28;20061;-64
2021/12/12 04:40:43;;;;;;;10.00;5.60;;;;;;;4.35;100.00;101731.94;2074181;28;20041;-64
2021/12/12 04:41:46;;;;;;;13.00;5.03;;;;;;;4.35;100.00;101737.94;2074258;28;20030;-64
2021/12/12 04:42:49;;;;;;;11.75;4.88;;;;;;;4.36;100.00;101731.94;2074187;28;20406;-64
2021/12/12 04:43:49;;;;;;;10.25;5.15;;;;;;;4.36;100.00;101733.66;2074182;28;20376;-65
2021/12/12 04:44:55;;;;;;;8.93;5.33;;;;;;;4.37;100.00;101728.47;2074222;28;20025;-65
2021/12/12 04:46:08;;;;;;;9.10;5.63;;;;;;;4.38;100.00;101743.13;2074015;28;20053;-63
2021/12/12 04:50:19;;;;;;;10.55;4.68;;;;;;;4.41;100.00;101741.41;2074196;28;20030;-62
2021/12/12 04:51:24;;;;;;;9.13;5.47;;;;;;;4.43;100.00;101734.50;2074091;28;20030;-63
2021/12/12 04:53:00;;;;;;;13.82;5.72;;;;;;;4.43;100.00;101739.66;2074111;28;20030;-64
2021/12/12 04:54:36;;;;;;;8.95;5.65;;;;;;;4.42;100.00;101735.38;2048991;28;20035;-63
2021/12/12 04:55:56;;;;;;;13.90;5.40;;;;;;;4.45;100.00;101733.63;2070530;28;20170;-63
2021/12/12 04:57:06;;;;;;;10.35;5.35;;;;;;;4.45;100.00;101735.38;2074027;28;20041;-63
2021/12/12 04:58:21;;;;;;;8.73;5.68;;;;;;;4.43;100.00;101740.53;2073934;28;20049;-63
2021/12/12 04:59:28;;;;;;;12.93;5.93;;;;;;;4.44;100.00;101741.38;2073916;28;20117;-63
2021/12/12 05:00:36;;;;;;;13.50;5.93;;;;;;;4.42;100.00;101737.94;2074016;28;20428;-63
2021/12/12 05:01:42;;;;;;;9.85;5.00;;;;;;;4.43;100.00;101735.38;2074031;28;20033;-63
2021/12/12 05:02:54;;;;;;;11.60;5.72;;;;;;;4.44;100.00;101733.63;2074030;28;20022;-63
2021/12/12 05:04:21;;;;;;;8.82;4.97;;;;;;;4.44;100.00;101741.38;2074080;28;20062;-64
2021/12/12 05:05:30;;;;;;;7.88;4.45;;;;;;;4.45;100.00;101743.13;2065155;28;20030;-63
2021/12/12 05:06:53;;;;;;;9.07;5.40;;;;;;;4.45;100.00;101737.94;2066288;28;20039;-63
2021/12/12 05:07:57;;;;;;;8.93;5.25;;;;;;;4.45;100.00;101732.78;2073782;28;20033;-64
2021/12/12 05:09:14;;;;;;;10.25;5.53;;;;;;;4.46;100.00;101739.66;2074039;28;20052;-63
2021/12/12 05:10:22;;;;;;;8.65;5.70;;;;;;;4.47;100.00;101746.53;2073996;28;20440;-63
2021/12/12 05:11:30;;;;;;;11.93;6.47;;;;;;;4.46;100.00;101750.00;2065019;28;20454;-64
2021/12/12 05:12:40;;;;;;;9.07;5.75;;;;;;;4.47;100.00;101749.13;2066219;28;20030;-63
2021/12/12 05:13:49;;;;;;;9.48;5.88;;;;;;;4.48;100.00;101753.47;2073991;28;20025;-63
2021/12/12 05:14:55;;;;;;;11.77;5.40;;;;;;;4.47;100.00;101747.41;2065196;28;20097;-64
2021/12/12 05:16:05;;;;;;;9.43;5.93;;;;;;;4.48;100.00;101753.47;2057782;28;20432;-62
2021/12/12 05:17:13;;;;;;;9.18;5.25;;;;;;;4.48;100.00;101753.47;2066573;28;20041;-63
2021/12/12 05:18:26;;;;;;;11.55;6.57;;;;;;;4.50;100.00;101751.72;2073944;28;20029;-63
2021/12/12 05:19:28;;;;;;;9.60;5.93;;;;;;;4.50;100.00;101749.13;2073918;28;20072;-63
2021/12/12 05:20:32;;;;;;;10.10;5.57;;;;;;;4.50;100.00;101746.53;2065175;28;20030;-64